sensor_id;sensor_type;location;lat;lon;timestamp;P1;durP1;ratioP1;P2;durP2;ratioP2
22967;SDS011;11650;48.106;-1.696;2023-02-15T00:01:30;55.40;;;31.83;;
22967;SDS011;11650;48.106;-1.696;2023-02-15T00:03:57;60.53;;;33.17;;
22967;SDS011;11650;48.106;-1.696;2023-02-15T00:06:22;54.37;;;31.63;;
22967;SDS011;11650;48.106;-1.696;2023-02-15T00:08:48;61.80;;;33.33;;
22967;SDS011;11650;48.106;-1.696;2023-02-15T00:11:15;64.03;;;33.53;;
22967;SDS011;11650;48.106;-1.696;2023-02-15T00:14:02;55.37;;;33.57;;
22967;SDS011;11650;48.106;-1.696;2023-02-15T00:16:28;57.63;;;33.70;;
22967;SDS011;11650;48.106;-1.696;2023-02-15T00:18:54;55.53;;;32.23;;
22967;SDS011;11650;48.106;-1.696;2023-02-15T00:21:20;55.97;;;33.10;;
22967;SDS011;11650;48.106;-1.696;2023-02-15T00:23:46;59.47;;;33.00;;
22967;SDS011;11650;48.106;-1.696;2023-02-15T00:26:11;56.47;;;32.43;;
22967;SDS011;11650;48.106;-1.696;2023-02-15T00:28:38;56.20;;;31.17;;
22967;SDS011;11650;48.106;-1.696;2023-02-15T00:31:07;60.20;;;33.00;;
22967;SDS011;11650;48.106;-1.696;2023-02-15T00:33:34;56.00;;;32.77;;
22967;SDS011;11650;48.106;-1.696;2023-02-15T00:36:00;58.90;;;32.07;;
22967;SDS011;11650;48.106;-1.696;2023-02-15T00:38:27;52.63;;;31.10;;
22967;SDS011;11650;48.106;-1.696;2023-02-15T00:40:54;53.17;;;30.77;;
22967;SDS011;11650;48.106;-1.696;2023-02-15T00:43:20;51.60;;;30.23;;
22967;SDS011;11650;48.106;-1.696;2023-02-15T00:45:46;53.97;;;31.27;;
22967;SDS011;11650;48.106;-1.696;2023-02-15T00:48:12;50.97;;;31.07;;
22967;SDS011;11650;48.106;-1.696;2023-02-15T00:50:38;53.83;;;30.20;;
22967;SDS011;11650;48.106;-1.696;2023-02-15T00:53:04;54.60;;;30.33;;
22967;SDS011;11650;48.106;-1.696;2023-02-15T00:55:30;48.47;;;29.30;;
22967;SDS011;11650;48.106;-1.696;2023-02-15T00:57:55;52.03;;;30.73;;
22967;SDS011;11650;48.106;-1.696;2023-02-15T01:00:21;50.70;;;30.23;;
22967;SDS011;11650;48.106;-1.696;2023-02-15T01:02:47;49.70;;;29.27;;
22967;SDS011;11650;48.106;-1.696;2023-02-15T01:05:12;52.97;;;30.60;;
22967;SDS011;11650;48.106;-1.696;2023-02-15T01:07:38;50.53;;;28.60;;
22967;SDS011;11650;48.106;-1.696;2023-02-15T01:10:05;55.67;;;29.03;;
22967;SDS011;11650;48.106;-1.696;2023-02-15T01:12:31;50.83;;;29.07;;
22967;SDS011;11650;48.106;-1.696;2023-02-15T01:14:57;49.27;;;28.77;;
22967;SDS011;11650;48.106;-1.696;2023-02-15T01:17:23;50.90;;;29.50;;
22967;SDS011;11650;48.106;-1.696;2023-02-15T01:19:49;53.60;;;28.97;;
22967;SDS011;11650;48.106;-1.696;2023-02-15T01:22:16;52.23;;;29.03;;
22967;SDS011;11650;48.106;-1.696;2023-02-15T01:24:42;48.80;;;28.23;;
22967;SDS011;11650;48.106;-1.696;2023-02-15T01:27:08;48.33;;;27.53;;
22967;SDS011;11650;48.106;-1.696;2023-02-15T01:29:33;47.53;;;26.63;;
22967;SDS011;11650;48.106;-1.696;2023-02-15T01:31:59;48.00;;;26.13;;
22967;SDS011;11650;48.106;-1.696;2023-02-15T01:34:24;46.43;;;26.33;;
22967;SDS011;11650;48.106;-1.696;2023-02-15T01:36:50;47.20;;;26.87;;
22967;SDS011;11650;48.106;-1.696;2023-02-15T01:39:16;44.13;;;25.13;;
22967;SDS011;11650;48.106;-1.696;2023-02-15T01:41:41;43.33;;;24.83;;
22967;SDS011;11650;48.106;-1.696;2023-02-15T01:47:10;40.50;;;24.63;;
22967;SDS011;11650;48.106;-1.696;2023-02-15T01:49:39;45.23;;;24.87;;
22967;SDS011;11650;48.106;-1.696;2023-02-15T01:52:07;47.47;;;26.03;;
22967;SDS011;11650;48.106;-1.696;2023-02-15T01:54:34;47.67;;;24.93;;
22967;SDS011;11650;48.106;-1.696;2023-02-15T01:57:03;41.23;;;25.40;;
22967;SDS011;11650;48.106;-1.696;2023-02-15T01:59:31;46.83;;;26.60;;
22967;SDS011;11650;48.106;-1.696;2023-02-15T02:01:58;45.00;;;25.43;;
22967;SDS011;11650;48.106;-1.696;2023-02-15T02:04:28;47.73;;;26.23;;
22967;SDS011;11650;48.106;-1.696;2023-02-15T02:06:58;45.70;;;26.20;;
22967;SDS011;11650;48.106;-1.696;2023-02-15T02:09:24;45.20;;;26.63;;
22967;SDS011;11650;48.106;-1.696;2023-02-15T02:11:51;42.53;;;24.93;;
22967;SDS011;11650;48.106;-1.696;2023-02-15T02:14:19;42.43;;;25.70;;
22967;SDS011;11650;48.106;-1.696;2023-02-15T02:25:59;42.90;;;24.37;;
22967;SDS011;11650;48.106;-1.696;2023-02-15T02:33:54;40.73;;;24.63;;
22967;SDS011;11650;48.106;-1.696;2023-02-15T02:41:44;42.40;;;24.23;;
22967;SDS011;11650;48.106;-1.696;2023-02-15T02:44:17;41.87;;;24.30;;
22967;SDS011;11650;48.106;-1.696;2023-02-15T02:51:58;43.77;;;24.43;;
22967;SDS011;11650;48.106;-1.696;2023-02-15T02:54:25;42.23;;;24.93;;
22967;SDS011;11650;48.106;-1.696;2023-02-15T02:56:52;43.93;;;24.47;;
22967;SDS011;11650;48.106;-1.696;2023-02-15T02:59:26;43.23;;;24.33;;
22967;SDS011;11650;48.106;-1.696;2023-02-15T03:04:35;42.13;;;23.73;;
22967;SDS011;11650;48.106;-1.696;2023-02-15T03:07:05;40.50;;;24.63;;
22967;SDS011;11650;48.106;-1.696;2023-02-15T03:09:51;43.83;;;24.67;;
22967;SDS011;11650;48.106;-1.696;2023-02-15T03:12:20;40.67;;;23.67;;
22967;SDS011;11650;48.106;-1.696;2023-02-15T03:17:35;41.70;;;24.00;;
22967;SDS011;11650;48.106;-1.696;2023-02-15T03:20:09;40.33;;;24.20;;
22967;SDS011;11650;48.106;-1.696;2023-02-15T03:22:40;45.10;;;24.50;;
22967;SDS011;11650;48.106;-1.696;2023-02-15T03:25:19;44.67;;;25.30;;
22967;SDS011;11650;48.106;-1.696;2023-02-15T03:28:09;43.67;;;23.93;;
22967;SDS011;11650;48.106;-1.696;2023-02-15T03:30:42;42.67;;;23.83;;
22967;SDS011;11650;48.106;-1.696;2023-02-15T03:33:12;46.83;;;24.87;;
22967;SDS011;11650;48.106;-1.696;2023-02-15T03:35:50;43.43;;;25.10;;
22967;SDS011;11650;48.106;-1.696;2023-02-15T03:38:23;43.20;;;24.77;;
22967;SDS011;11650;48.106;-1.696;2023-02-15T03:41:03;40.60;;;24.27;;
22967;SDS011;11650;48.106;-1.696;2023-02-15T03:46:56;44.80;;;24.97;;
22967;SDS011;11650;48.106;-1.696;2023-02-15T03:49:12;40.40;;;23.80;;
22967;SDS011;11650;48.106;-1.696;2023-02-15T03:51:48;43.77;;;25.03;;
22967;SDS011;11650;48.106;-1.696;2023-02-15T03:54:22;42.73;;;24.27;;
22967;SDS011;11650;48.106;-1.696;2023-02-15T04:00:05;41.30;;;23.33;;
22967;SDS011;11650;48.106;-1.696;2023-02-15T04:05:48;44.87;;;23.83;;
22967;SDS011;11650;48.106;-1.696;2023-02-15T04:08:14;45.37;;;24.70;;
22967;SDS011;11650;48.106;-1.696;2023-02-15T04:10:39;42.63;;;23.83;;
22967;SDS011;11650;48.106;-1.696;2023-02-15T04:13:20;39.33;;;23.33;;
22967;SDS011;11650;48.106;-1.696;2023-02-15T04:15:48;41.20;;;23.57;;
22967;SDS011;11650;48.106;-1.696;2023-02-15T04:18:39;38.60;;;22.53;;
22967;SDS011;11650;48.106;-1.696;2023-02-15T04:21:25;43.63;;;24.07;;
22967;SDS011;11650;48.106;-1.696;2023-02-15T04:24:12;39.57;;;22.37;;
22967;SDS011;11650;48.106;-1.696;2023-02-15T04:26:56;40.67;;;22.50;;
22967;SDS011;11650;48.106;-1.696;2023-02-15T04:29:23;43.30;;;23.37;;
22967;SDS011;11650;48.106;-1.696;2023-02-15T04:31:49;41.37;;;22.97;;
22967;SDS011;11650;48.106;-1.696;2023-02-15T04:34:15;41.20;;;23.37;;
22967;SDS011;11650;48.106;-1.696;2023-02-15T04:36:41;40.47;;;23.23;;
22967;SDS011;11650;48.106;-1.696;2023-02-15T04:39:08;39.97;;;22.60;;
22967;SDS011;11650;48.106;-1.696;2023-02-15T04:41:34;39.47;;;23.30;;
22967;SDS011;11650;48.106;-1.696;2023-02-15T04:44:00;40.17;;;22.33;;
22967;SDS011;11650;48.106;-1.696;2023-02-15T04:46:27;45.13;;;24.63;;
22967;SDS011;11650;48.106;-1.696;2023-02-15T04:48:53;41.70;;;23.13;;
22967;SDS011;11650;48.106;-1.696;2023-02-15T04:51:19;39.10;;;22.70;;
22967;SDS011;11650;48.106;-1.696;2023-02-15T04:53:45;40.73;;;22.90;;
22967;SDS011;11650;48.106;-1.696;2023-02-15T04:56:10;37.47;;;22.57;;
22967;SDS011;11650;48.106;-1.696;2023-02-15T04:58:36;41.23;;;23.90;;
22967;SDS011;11650;48.106;-1.696;2023-02-15T05:01:05;40.17;;;22.60;;
22967;SDS011;11650;48.106;-1.696;2023-02-15T05:03:34;38.50;;;23.27;;
22967;SDS011;11650;48.106;-1.696;2023-02-15T05:06:00;43.53;;;23.37;;
22967;SDS011;11650;48.106;-1.696;2023-02-15T05:08:26;43.17;;;23.07;;
22967;SDS011;11650;48.106;-1.696;2023-02-15T05:10:51;42.33;;;23.67;;
22967;SDS011;11650;48.106;-1.696;2023-02-15T05:13:17;40.53;;;22.63;;
22967;SDS011;11650;48.106;-1.696;2023-02-15T05:15:46;36.50;;;22.83;;
22967;SDS011;11650;48.106;-1.696;2023-02-15T05:18:14;40.83;;;22.13;;
22967;SDS011;11650;48.106;-1.696;2023-02-15T05:20:40;38.03;;;22.50;;
22967;SDS011;11650;48.106;-1.696;2023-02-15T05:23:05;38.70;;;21.70;;
22967;SDS011;11650;48.106;-1.696;2023-02-15T05:25:31;39.10;;;22.63;;
22967;SDS011;11650;48.106;-1.696;2023-02-15T05:28:15;38.50;;;21.93;;
22967;SDS011;11650;48.106;-1.696;2023-02-15T05:30:47;37.97;;;21.57;;
22967;SDS011;11650;48.106;-1.696;2023-02-15T05:33:24;36.50;;;21.80;;
22967;SDS011;11650;48.106;-1.696;2023-02-15T05:35:50;37.83;;;22.10;;
22967;SDS011;11650;48.106;-1.696;2023-02-15T05:38:16;38.87;;;22.00;;
22967;SDS011;11650;48.106;-1.696;2023-02-15T05:40:41;46.50;;;22.50;;
22967;SDS011;11650;48.106;-1.696;2023-02-15T05:43:07;38.90;;;22.00;;
22967;SDS011;11650;48.106;-1.696;2023-02-15T05:45:33;39.00;;;21.23;;
22967;SDS011;11650;48.106;-1.696;2023-02-15T05:47:58;37.13;;;21.47;;
22967;SDS011;11650;48.106;-1.696;2023-02-15T05:50:24;38.33;;;21.57;;
22967;SDS011;11650;48.106;-1.696;2023-02-15T05:52:50;39.97;;;22.03;;
22967;SDS011;11650;48.106;-1.696;2023-02-15T05:55:16;36.93;;;21.33;;
22967;SDS011;11650;48.106;-1.696;2023-02-15T05:57:42;39.87;;;22.43;;
22967;SDS011;11650;48.106;-1.696;2023-02-15T06:00:08;40.83;;;22.77;;
22967;SDS011;11650;48.106;-1.696;2023-02-15T06:02:35;42.37;;;23.37;;
22967;SDS011;11650;48.106;-1.696;2023-02-15T06:05:01;40.47;;;22.33;;
22967;SDS011;11650;48.106;-1.696;2023-02-15T06:07:28;39.13;;;20.97;;
22967;SDS011;11650;48.106;-1.696;2023-02-15T06:09:53;41.20;;;22.10;;
22967;SDS011;11650;48.106;-1.696;2023-02-15T06:12:19;38.07;;;22.73;;
22967;SDS011;11650;48.106;-1.696;2023-02-15T06:14:45;44.47;;;22.63;;
22967;SDS011;11650;48.106;-1.696;2023-02-15T06:17:10;33.60;;;21.03;;
22967;SDS011;11650;48.106;-1.696;2023-02-15T06:19:36;40.17;;;21.70;;
22967;SDS011;11650;48.106;-1.696;2023-02-15T06:22:01;36.73;;;21.03;;
22967;SDS011;11650;48.106;-1.696;2023-02-15T06:24:27;40.23;;;21.10;;
22967;SDS011;11650;48.106;-1.696;2023-02-15T06:26:53;39.00;;;21.07;;
22967;SDS011;11650;48.106;-1.696;2023-02-15T06:29:18;34.83;;;21.03;;
22967;SDS011;11650;48.106;-1.696;2023-02-15T06:31:44;39.80;;;20.53;;
22967;SDS011;11650;48.106;-1.696;2023-02-15T06:34:09;39.10;;;21.47;;
22967;SDS011;11650;48.106;-1.696;2023-02-15T06:36:35;36.60;;;21.43;;
22967;SDS011;11650;48.106;-1.696;2023-02-15T06:39:01;38.13;;;20.60;;
22967;SDS011;11650;48.106;-1.696;2023-02-15T06:41:28;42.20;;;21.27;;
22967;SDS011;11650;48.106;-1.696;2023-02-15T06:43:53;38.43;;;22.07;;
22967;SDS011;11650;48.106;-1.696;2023-02-15T06:46:19;38.87;;;22.00;;
22967;SDS011;11650;48.106;-1.696;2023-02-15T06:48:45;36.43;;;21.53;;
22967;SDS011;11650;48.106;-1.696;2023-02-15T06:51:11;37.50;;;21.30;;
22967;SDS011;11650;48.106;-1.696;2023-02-15T06:53:36;43.07;;;21.23;;
22967;SDS011;11650;48.106;-1.696;2023-02-15T06:56:06;39.07;;;21.67;;
22967;SDS011;11650;48.106;-1.696;2023-02-15T06:58:34;36.70;;;20.27;;
22967;SDS011;11650;48.106;-1.696;2023-02-15T07:01:07;38.07;;;20.90;;
22967;SDS011;11650;48.106;-1.696;2023-02-15T07:03:33;36.17;;;20.20;;
22967;SDS011;11650;48.106;-1.696;2023-02-15T07:06:01;35.87;;;20.90;;
22967;SDS011;11650;48.106;-1.696;2023-02-15T07:08:28;39.20;;;21.77;;
22967;SDS011;11650;48.106;-1.696;2023-02-15T07:10:54;40.23;;;21.40;;
22967;SDS011;11650;48.106;-1.696;2023-02-15T07:13:41;34.93;;;21.33;;
22967;SDS011;11650;48.106;-1.696;2023-02-15T07:16:08;37.23;;;21.23;;
22967;SDS011;11650;48.106;-1.696;2023-02-15T07:18:34;39.77;;;21.43;;
22967;SDS011;11650;48.106;-1.696;2023-02-15T07:21:00;38.83;;;21.00;;
22967;SDS011;11650;48.106;-1.696;2023-02-15T07:23:26;38.63;;;20.43;;
22967;SDS011;11650;48.106;-1.696;2023-02-15T07:25:58;40.07;;;20.77;;
22967;SDS011;11650;48.106;-1.696;2023-02-15T07:28:25;38.30;;;20.33;;
22967;SDS011;11650;48.106;-1.696;2023-02-15T07:30:50;35.53;;;20.67;;
22967;SDS011;11650;48.106;-1.696;2023-02-15T07:33:16;36.77;;;21.53;;
22967;SDS011;11650;48.106;-1.696;2023-02-15T07:38:23;37.63;;;19.87;;
22967;SDS011;11650;48.106;-1.696;2023-02-15T07:40:50;37.17;;;21.17;;
22967;SDS011;11650;48.106;-1.696;2023-02-15T07:43:16;39.47;;;21.40;;
22967;SDS011;11650;48.106;-1.696;2023-02-15T07:45:41;35.03;;;21.40;;
22967;SDS011;11650;48.106;-1.696;2023-02-15T07:48:07;42.97;;;22.20;;
22967;SDS011;11650;48.106;-1.696;2023-02-15T07:50:33;36.17;;;21.03;;
22967;SDS011;11650;48.106;-1.696;2023-02-15T07:53:02;38.20;;;21.27;;
22967;SDS011;11650;48.106;-1.696;2023-02-15T07:55:28;38.13;;;20.93;;
22967;SDS011;11650;48.106;-1.696;2023-02-15T07:57:54;40.70;;;21.63;;
22967;SDS011;11650;48.106;-1.696;2023-02-15T08:00:20;33.80;;;20.27;;
22967;SDS011;11650;48.106;-1.696;2023-02-15T08:03:06;41.43;;;21.70;;
22967;SDS011;11650;48.106;-1.696;2023-02-15T08:05:38;41.83;;;21.20;;
22967;SDS011;11650;48.106;-1.696;2023-02-15T08:08:05;36.40;;;21.77;;
22967;SDS011;11650;48.106;-1.696;2023-02-15T08:10:32;39.13;;;21.67;;
22967;SDS011;11650;48.106;-1.696;2023-02-15T08:13:16;39.53;;;22.17;;
22967;SDS011;11650;48.106;-1.696;2023-02-15T08:15:49;37.63;;;21.43;;
22967;SDS011;11650;48.106;-1.696;2023-02-15T08:18:15;38.70;;;21.83;;
22967;SDS011;11650;48.106;-1.696;2023-02-15T08:20:41;38.93;;;21.77;;
22967;SDS011;11650;48.106;-1.696;2023-02-15T08:23:06;43.57;;;22.27;;
22967;SDS011;11650;48.106;-1.696;2023-02-15T08:25:32;39.50;;;21.63;;
22967;SDS011;11650;48.106;-1.696;2023-02-15T08:27:58;39.50;;;21.83;;
22967;SDS011;11650;48.106;-1.696;2023-02-15T08:30:24;37.33;;;20.67;;
22967;SDS011;11650;48.106;-1.696;2023-02-15T08:32:49;37.33;;;21.57;;
22967;SDS011;11650;48.106;-1.696;2023-02-15T08:35:15;37.30;;;20.37;;
22967;SDS011;11650;48.106;-1.696;2023-02-15T08:37:41;42.23;;;22.10;;
22967;SDS011;11650;48.106;-1.696;2023-02-15T08:40:07;34.77;;;20.00;;
22967;SDS011;11650;48.106;-1.696;2023-02-15T08:42:33;35.93;;;21.40;;
22967;SDS011;11650;48.106;-1.696;2023-02-15T08:44:59;36.13;;;21.37;;
22967;SDS011;11650;48.106;-1.696;2023-02-15T08:47:24;33.13;;;20.03;;
22967;SDS011;11650;48.106;-1.696;2023-02-15T08:49:51;38.07;;;20.10;;
22967;SDS011;11650;48.106;-1.696;2023-02-15T08:52:17;36.43;;;19.70;;
22967;SDS011;11650;48.106;-1.696;2023-02-15T08:54:43;36.27;;;20.07;;
22967;SDS011;11650;48.106;-1.696;2023-02-15T08:57:08;36.03;;;19.90;;
22967;SDS011;11650;48.106;-1.696;2023-02-15T08:59:35;36.47;;;19.13;;
22967;SDS011;11650;48.106;-1.696;2023-02-15T09:02:01;32.43;;;19.93;;
22967;SDS011;11650;48.106;-1.696;2023-02-15T09:04:27;35.80;;;20.77;;
22967;SDS011;11650;48.106;-1.696;2023-02-15T09:06:53;34.63;;;20.87;;
22967;SDS011;11650;48.106;-1.696;2023-02-15T09:09:20;41.47;;;22.30;;
22967;SDS011;11650;48.106;-1.696;2023-02-15T09:11:48;36.67;;;21.40;;
22967;SDS011;11650;48.106;-1.696;2023-02-15T09:14:18;35.57;;;21.10;;
22967;SDS011;11650;48.106;-1.696;2023-02-15T09:16:46;37.50;;;20.43;;
22967;SDS011;11650;48.106;-1.696;2023-02-15T09:19:14;38.63;;;21.73;;
22967;SDS011;11650;48.106;-1.696;2023-02-15T09:21:43;39.77;;;22.03;;
22967;SDS011;11650;48.106;-1.696;2023-02-15T09:24:09;39.60;;;22.03;;
22967;SDS011;11650;48.106;-1.696;2023-02-15T09:26:37;35.77;;;21.00;;
22967;SDS011;11650;48.106;-1.696;2023-02-15T09:29:08;36.57;;;21.20;;
22967;SDS011;11650;48.106;-1.696;2023-02-15T09:31:39;36.50;;;21.47;;
22967;SDS011;11650;48.106;-1.696;2023-02-15T09:34:08;34.63;;;20.60;;
22967;SDS011;11650;48.106;-1.696;2023-02-15T09:36:35;36.57;;;21.50;;
22967;SDS011;11650;48.106;-1.696;2023-02-15T09:39:07;33.13;;;19.60;;
22967;SDS011;11650;48.106;-1.696;2023-02-15T09:57:51;33.13;;;19.53;;
22967;SDS011;11650;48.106;-1.696;2023-02-15T10:17:01;33.53;;;19.40;;
22967;SDS011;11650;48.106;-1.696;2023-02-15T10:19:49;33.53;;;20.30;;
22967;SDS011;11650;48.106;-1.696;2023-02-15T10:25:34;41.03;;;21.10;;
22967;SDS011;11650;48.106;-1.696;2023-02-15T10:28:05;35.17;;;20.47;;
22967;SDS011;11650;48.106;-1.696;2023-02-15T10:30:42;39.30;;;21.73;;
22967;SDS011;11650;48.106;-1.696;2023-02-15T10:35:59;34.83;;;20.13;;
22967;SDS011;11650;48.106;-1.696;2023-02-15T10:38:37;35.13;;;20.77;;
22967;SDS011;11650;48.106;-1.696;2023-02-15T10:43:41;33.07;;;20.50;;
22967;SDS011;11650;48.106;-1.696;2023-02-15T10:54:32;35.27;;;20.13;;
22967;SDS011;11650;48.106;-1.696;2023-02-15T10:57:14;32.20;;;19.03;;
22967;SDS011;11650;48.106;-1.696;2023-02-15T11:05:27;29.73;;;17.17;;
22967;SDS011;11650;48.106;-1.696;2023-02-15T11:08:03;33.80;;;17.03;;
22967;SDS011;11650;48.106;-1.696;2023-02-15T11:10:42;29.60;;;18.23;;
22967;SDS011;11650;48.106;-1.696;2023-02-15T11:13:10;27.90;;;18.97;;
22967;SDS011;11650;48.106;-1.696;2023-02-15T11:23:28;29.83;;;17.17;;
22967;SDS011;11650;48.106;-1.696;2023-02-15T11:28:34;28.57;;;17.97;;
22967;SDS011;11650;48.106;-1.696;2023-02-15T11:31:16;31.47;;;18.70;;
22967;SDS011;11650;48.106;-1.696;2023-02-15T11:33:45;28.10;;;18.17;;
22967;SDS011;11650;48.106;-1.696;2023-02-15T11:36:20;29.27;;;17.10;;
22967;SDS011;11650;48.106;-1.696;2023-02-15T11:38:51;29.07;;;17.27;;
22967;SDS011;11650;48.106;-1.696;2023-02-15T11:41:24;29.17;;;18.53;;
22967;SDS011;11650;48.106;-1.696;2023-02-15T11:46:45;30.03;;;19.30;;
22967;SDS011;11650;48.106;-1.696;2023-02-15T11:51:57;29.43;;;18.00;;
22967;SDS011;11650;48.106;-1.696;2023-02-15T11:54:26;28.37;;;18.40;;
22967;SDS011;11650;48.106;-1.696;2023-02-15T11:56:56;28.10;;;18.00;;
22967;SDS011;11650;48.106;-1.696;2023-02-15T11:59:48;26.77;;;17.40;;
22967;SDS011;11650;48.106;-1.696;2023-02-15T12:02:18;28.37;;;18.33;;
22967;SDS011;11650;48.106;-1.696;2023-02-15T12:04:48;27.83;;;18.27;;
22967;SDS011;11650;48.106;-1.696;2023-02-15T12:07:25;27.30;;;17.77;;
22967;SDS011;11650;48.106;-1.696;2023-02-15T12:10:17;29.53;;;18.53;;
22967;SDS011;11650;48.106;-1.696;2023-02-15T12:15:40;27.90;;;18.90;;
22967;SDS011;11650;48.106;-1.696;2023-02-15T12:18:42;25.67;;;17.53;;
22967;SDS011;11650;48.106;-1.696;2023-02-15T12:21:02;30.00;;;18.27;;
22967;SDS011;11650;48.106;-1.696;2023-02-15T12:23:31;28.77;;;18.07;;
22967;SDS011;11650;48.106;-1.696;2023-02-15T12:25:58;29.53;;;18.37;;
22967;SDS011;11650;48.106;-1.696;2023-02-15T12:28:30;28.07;;;17.80;;
22967;SDS011;11650;48.106;-1.696;2023-02-15T12:30:59;25.73;;;16.57;;
22967;SDS011;11650;48.106;-1.696;2023-02-15T12:33:29;28.27;;;18.37;;
22967;SDS011;11650;48.106;-1.696;2023-02-15T12:35:57;29.83;;;18.87;;
22967;SDS011;11650;48.106;-1.696;2023-02-15T12:38:40;31.20;;;18.00;;
22967;SDS011;11650;48.106;-1.696;2023-02-15T12:41:25;29.67;;;18.37;;
22967;SDS011;11650;48.106;-1.696;2023-02-15T12:44:06;26.73;;;18.10;;
22967;SDS011;11650;48.106;-1.696;2023-02-15T12:46:40;26.63;;;17.10;;
22967;SDS011;11650;48.106;-1.696;2023-02-15T12:49:07;23.83;;;17.20;;
22967;SDS011;11650;48.106;-1.696;2023-02-15T12:56:47;26.27;;;17.53;;
22967;SDS011;11650;48.106;-1.696;2023-02-15T12:59:13;26.97;;;16.43;;
22967;SDS011;11650;48.106;-1.696;2023-02-15T13:01:45;24.93;;;16.20;;
22967;SDS011;11650;48.106;-1.696;2023-02-15T13:04:19;24.57;;;16.20;;
22967;SDS011;11650;48.106;-1.696;2023-02-15T13:06:49;25.30;;;16.80;;
22967;SDS011;11650;48.106;-1.696;2023-02-15T13:09:33;29.87;;;16.57;;
22967;SDS011;11650;48.106;-1.696;2023-02-15T13:12:21;27.80;;;15.80;;
22967;SDS011;11650;48.106;-1.696;2023-02-15T13:14:52;24.07;;;15.53;;
22967;SDS011;11650;48.106;-1.696;2023-02-15T13:17:21;25.17;;;16.43;;
22967;SDS011;11650;48.106;-1.696;2023-02-15T13:19:54;23.03;;;16.50;;
22967;SDS011;11650;48.106;-1.696;2023-02-15T13:22:28;24.17;;;16.10;;
22967;SDS011;11650;48.106;-1.696;2023-02-15T13:25:03;23.57;;;14.57;;
22967;SDS011;11650;48.106;-1.696;2023-02-15T13:27:36;25.03;;;14.67;;
22967;SDS011;11650;48.106;-1.696;2023-02-15T13:30:10;22.17;;;15.23;;
22967;SDS011;11650;48.106;-1.696;2023-02-15T13:33:10;23.97;;;14.77;;
22967;SDS011;11650;48.106;-1.696;2023-02-15T13:36:00;21.53;;;14.60;;
22967;SDS011;11650;48.106;-1.696;2023-02-15T14:09:03;18.23;;;14.33;;
22967;SDS011;11650;48.106;-1.696;2023-02-15T14:14:47;21.37;;;16.33;;
22967;SDS011;11650;48.106;-1.696;2023-02-15T14:20:25;17.33;;;12.60;;
22967;SDS011;11650;48.106;-1.696;2023-02-15T14:25:50;22.17;;;12.37;;
22967;SDS011;11650;48.106;-1.696;2023-02-15T14:31:01;17.83;;;13.27;;
22967;SDS011;11650;48.106;-1.696;2023-02-15T14:33:39;21.30;;;13.33;;
22967;SDS011;11650;48.106;-1.696;2023-02-15T14:36:08;22.20;;;13.00;;
22967;SDS011;11650;48.106;-1.696;2023-02-15T14:41:21;18.43;;;12.40;;
22967;SDS011;11650;48.106;-1.696;2023-02-15T14:49:33;20.03;;;12.67;;
22967;SDS011;11650;48.106;-1.696;2023-02-15T14:52:06;21.27;;;13.47;;
22967;SDS011;11650;48.106;-1.696;2023-02-15T15:07:25;20.07;;;12.73;;
22967;SDS011;11650;48.106;-1.696;2023-02-15T15:15:10;16.83;;;12.53;;
22967;SDS011;11650;48.106;-1.696;2023-02-15T15:20:05;18.57;;;12.33;;
22967;SDS011;11650;48.106;-1.696;2023-02-15T15:22:34;22.00;;;13.53;;
22967;SDS011;11650;48.106;-1.696;2023-02-15T15:25:02;21.03;;;12.87;;
22967;SDS011;11650;48.106;-1.696;2023-02-15T15:27:45;17.57;;;12.50;;
22967;SDS011;11650;48.106;-1.696;2023-02-15T15:38:25;17.50;;;11.90;;
22967;SDS011;11650;48.106;-1.696;2023-02-15T15:50:11;19.97;;;12.43;;
22967;SDS011;11650;48.106;-1.696;2023-02-15T15:52:39;17.17;;;12.57;;
22967;SDS011;11650;48.106;-1.696;2023-02-15T15:55:14;18.57;;;11.53;;
22967;SDS011;11650;48.106;-1.696;2023-02-15T15:57:42;18.13;;;12.60;;
22967;SDS011;11650;48.106;-1.696;2023-02-15T16:00:24;20.27;;;12.47;;
22967;SDS011;11650;48.106;-1.696;2023-02-15T16:02:51;20.03;;;12.67;;
22967;SDS011;11650;48.106;-1.696;2023-02-15T16:05:18;18.63;;;12.03;;
22967;SDS011;11650;48.106;-1.696;2023-02-15T16:07:44;26.53;;;12.67;;
22967;SDS011;11650;48.106;-1.696;2023-02-15T16:10:23;18.57;;;12.07;;
22967;SDS011;11650;48.106;-1.696;2023-02-15T16:12:51;18.70;;;11.83;;
22967;SDS011;11650;48.106;-1.696;2023-02-15T16:15:25;16.63;;;12.73;;
22967;SDS011;11650;48.106;-1.696;2023-02-15T16:18:02;17.23;;;11.77;;
22967;SDS011;11650;48.106;-1.696;2023-02-15T16:20:29;18.87;;;12.93;;
22967;SDS011;11650;48.106;-1.696;2023-02-15T16:28:18;21.57;;;13.70;;
22967;SDS011;11650;48.106;-1.696;2023-02-15T16:30:45;20.37;;;14.20;;
22967;SDS011;11650;48.106;-1.696;2023-02-15T16:33:15;21.87;;;14.10;;
22967;SDS011;11650;48.106;-1.696;2023-02-15T16:35:54;23.87;;;14.07;;
22967;SDS011;11650;48.106;-1.696;2023-02-15T16:41:35;22.57;;;13.77;;
22967;SDS011;11650;48.106;-1.696;2023-02-15T16:44:03;22.73;;;14.17;;
22967;SDS011;11650;48.106;-1.696;2023-02-15T16:46:33;18.53;;;13.43;;
22967;SDS011;11650;48.106;-1.696;2023-02-15T16:49:07;24.13;;;15.53;;
22967;SDS011;11650;48.106;-1.696;2023-02-15T16:51:40;21.13;;;14.33;;
22967;SDS011;11650;48.106;-1.696;2023-02-15T16:54:13;23.43;;;14.67;;
22967;SDS011;11650;48.106;-1.696;2023-02-15T16:56:45;24.97;;;14.23;;
22967;SDS011;11650;48.106;-1.696;2023-02-15T17:01:55;22.13;;;15.77;;
22967;SDS011;11650;48.106;-1.696;2023-02-15T17:09:40;28.77;;;16.13;;
22967;SDS011;11650;48.106;-1.696;2023-02-15T17:17:57;26.10;;;18.03;;
22967;SDS011;11650;48.106;-1.696;2023-02-15T17:20:26;30.63;;;17.90;;
22967;SDS011;11650;48.106;-1.696;2023-02-15T17:22:53;30.87;;;18.23;;
22967;SDS011;11650;48.106;-1.696;2023-02-15T17:25:19;32.73;;;19.77;;
22967;SDS011;11650;48.106;-1.696;2023-02-15T17:27:52;30.07;;;18.27;;
22967;SDS011;11650;48.106;-1.696;2023-02-15T17:30:37;27.90;;;17.20;;
22967;SDS011;11650;48.106;-1.696;2023-02-15T17:33:03;31.40;;;17.90;;
22967;SDS011;11650;48.106;-1.696;2023-02-15T17:35:42;32.47;;;17.23;;
22967;SDS011;11650;48.106;-1.696;2023-02-15T17:38:17;33.60;;;17.33;;
22967;SDS011;11650;48.106;-1.696;2023-02-15T17:40:44;29.40;;;17.50;;
22967;SDS011;11650;48.106;-1.696;2023-02-15T17:43:10;39.87;;;21.63;;
22967;SDS011;11650;48.106;-1.696;2023-02-15T17:45:36;31.83;;;21.20;;
22967;SDS011;11650;48.106;-1.696;2023-02-15T17:48:09;30.77;;;20.53;;
22967;SDS011;11650;48.106;-1.696;2023-02-15T17:50:45;36.53;;;20.53;;
22967;SDS011;11650;48.106;-1.696;2023-02-15T17:53:11;29.07;;;17.97;;
22967;SDS011;11650;48.106;-1.696;2023-02-15T17:55:40;35.67;;;16.93;;
22967;SDS011;11650;48.106;-1.696;2023-02-15T18:00:42;33.13;;;17.57;;
22967;SDS011;11650;48.106;-1.696;2023-02-15T18:03:52;32.20;;;18.17;;
22967;SDS011;11650;48.106;-1.696;2023-02-15T18:06:40;26.80;;;16.77;;
22967;SDS011;11650;48.106;-1.696;2023-02-15T18:09:25;32.57;;;19.27;;
22967;SDS011;11650;48.106;-1.696;2023-02-15T18:12:25;29.87;;;18.13;;
22967;SDS011;11650;48.106;-1.696;2023-02-15T18:14:53;28.17;;;17.80;;
22967;SDS011;11650;48.106;-1.696;2023-02-15T18:20:02;29.53;;;16.80;;
22967;SDS011;11650;48.106;-1.696;2023-02-15T18:22:31;29.40;;;16.17;;
22967;SDS011;11650;48.106;-1.696;2023-02-15T18:24:57;29.33;;;15.13;;
22967;SDS011;11650;48.106;-1.696;2023-02-15T18:27:23;28.83;;;15.80;;